Time;durP1;ratioP1;P1;durP2;ratioP2;P2;SDS_P1;SDS_P2;PMS_P1;PMS_P2;Temp;Humidity;BMP_temperature;BMP_pressure;BME280_temperature;BME280_humidity;BME280_pressure;Samples;Min_cycle;Max_cycle;Signal;HPM_P1;HPM_P2
2023/06/07 00:01:33;;;;;;;17.90;16.30;;;18.80;99.90;;;;;;5032988;28;20443;-52
2023/06/07 00:04:19;;;;;;;17.83;16.13;;;18.70;99.90;;;;;;5030014;28;20116;-51
2023/06/07 00:07:06;;;;;;;16.58;15.07;;;18.70;99.90;;;;;;5031362;28;20026;-49
2023/06/07 00:09:52;;;;;;;18.83;17.05;;;18.70;99.90;;;;;;5031964;28;20022;-55
2023/06/07 00:12:38;;;;;;;19.90;17.98;;;18.70;99.90;;;;;;5031203;28;20116;-52
2023/06/07 00:15:24;;;;;;;20.00;18.20;;;18.70;99.90;;;;;;5031627;28;20032;-53
2023/06/07 00:18:10;;;;;;;21.73;19.60;;;18.70;99.90;;;;;;5031097;28;20379;-55
2023/06/07 00:20:57;;;;;;;25.60;23.08;;;18.80;99.90;;;;;;5032841;28;20048;-51
2023/06/07 00:23:43;;;;;;;26.75;24.33;;;18.80;99.90;;;;;;5031576;28;20029;-54
2023/06/07 00:26:29;;;;;;;27.10;24.67;;;18.60;99.90;;;;;;5032279;28;20037;-52
2023/06/07 00:29:16;;;;;;;27.15;24.55;;;18.60;99.90;;;;;;5031292;28;20029;-52
2023/06/07 00:32:02;;;;;;;26.98;24.48;;;18.50;99.90;;;;;;5031821;28;20041;-50
2023/06/07 00:34:48;;;;;;;29.23;26.40;;;18.50;99.90;;;;;;5034736;28;20029;-51
2023/06/07 00:37:34;;;;;;;29.20;26.45;;;18.50;99.90;;;;;;5029845;28;20033;-54
2023/06/07 00:40:21;;;;;;;29.08;26.38;;;18.50;99.90;;;;;;5031386;28;20025;-52
2023/06/07 00:43:06;;;;;;;29.67;26.95;;;18.40;99.90;;;;;;5031161;28;20083;-54
2023/06/07 00:45:53;;;;;;;27.67;25.08;;;18.30;99.90;;;;;;5031316;28;20116;-51
2023/06/07 00:48:39;;;;;;;28.52;25.90;;;18.20;99.90;;;;;;5029830;28;20024;-51
2023/06/07 00:51:28;;;;;;;25.35;22.95;;;18.30;99.90;;;;;;5017637;28;20117;-46
2023/06/07 00:54:17;;;;;;;22.55;20.55;;;18.30;99.90;;;;;;5011884;28;20026;-49
2023/06/07 00:57:05;;;;;;;22.05;19.90;;;18.40;99.90;;;;;;5013218;28;20041;-48
2023/06/07 00:59:51;;;;;;;19.35;17.33;;;18.40;99.90;;;;;;5028706;28;20402;-53
2023/06/07 01:02:37;;;;;;;18.45;16.85;;;18.50;99.90;;;;;;5031776;28;20211;-48
2023/06/07 01:05:23;;;;;;;16.17;14.68;;;18.50;99.90;;;;;;5035564;28;20029;-50
2023/06/07 01:08:11;;;;;;;17.75;16.10;;;18.60;99.90;;;;;;5034455;28;20386;-50
2023/06/07 01:10:59;;;;;;;15.75;14.35;;;18.60;99.90;;;;;;5034438;28;20022;-50
2023/06/07 01:13:45;;;;;;;15.52;14.13;;;18.60;99.90;;;;;;5033732;28;20497;-49
2023/06/07 01:16:31;;;;;;;16.38;14.77;;;18.70;99.90;;;;;;5033229;28;20029;-53
2023/06/07 01:19:27;;;;;;;15.13;13.73;;;18.70;99.90;;;;;;5035390;28;20037;-52
2023/06/07 01:22:14;;;;;;;14.80;13.40;;;18.70;99.90;;;;;;5034980;28;20037;-50
2023/06/07 01:25:00;;;;;;;15.73;14.23;;;18.70;99.90;;;;;;5035101;28;20037;-50
2023/06/07 01:27:50;;;;;;;14.75;13.38;;;18.70;99.90;;;;;;5017186;28;20034;-50
2023/06/07 01:30:36;;;;;;;16.33;13.43;;;18.60;99.90;;;;;;5016604;28;20038;-52
2023/06/07 01:33:23;;;;;;;14.75;13.35;;;18.70;99.90;;;;;;5014565;28;20034;-50
2023/06/07 01:36:10;;;;;;;14.18;12.88;;;18.70;99.90;;;;;;5013950;28;20029;-53
2023/06/07 01:38:59;;;;;;;14.00;12.70;;;18.70;99.90;;;;;;5014655;28;20036;-55
2023/06/07 01:41:47;;;;;;;14.52;13.15;;;18.70;99.90;;;;;;5029225;28;20398;-50
2023/06/07 01:44:34;;;;;;;14.63;13.23;;;18.70;99.90;;;;;;5035170;28;20026;-51
2023/06/07 01:47:20;;;;;;;15.20;13.80;;;18.70;99.90;;;;;;5034466;28;20459;-49
2023/06/07 01:50:08;;;;;;;16.02;14.63;;;18.60;99.90;;;;;;5034477;28;20133;-49
2023/06/07 01:52:54;;;;;;;15.45;14.02;;;18.60;99.90;;;;;;5034229;28;20581;-48
2023/06/07 01:55:41;;;;;;;18.42;15.73;;;18.50;99.90;;;;;;5014666;28;20111;-47
2023/06/07 01:59:11;;;;;;;17.45;15.15;;;18.40;99.90;;;;;;5013813;28;20117;-46
2023/06/07 02:02:12;;;;;;;17.35;15.75;;;18.40;99.90;;;;;;5014303;28;20030;-47
2023/06/07 02:05:03;;;;;;;16.73;15.23;;;18.30;99.90;;;;;;5032757;28;20025;-51
2023/06/07 02:07:51;;;;;;;17.95;16.35;;;18.40;99.90;;;;;;5036269;28;20505;-46
2023/06/07 02:10:38;;;;;;;19.50;17.40;;;18.40;99.90;;;;;;5031746;28;20059;-49
2023/06/07 02:13:27;;;;;;;18.70;16.90;;;18.30;99.90;;;;;;5028875;28;20515;-51
2023/06/07 02:16:14;;;;;;;17.30;15.70;;;18.20;99.90;;;;;;5015639;28;20467;-46
2023/06/07 02:18:59;;;;;;;15.65;14.18;;;18.20;99.90;;;;;;5014079;28;20030;-46
2023/06/07 02:21:45;;;;;;;17.50;15.40;;;18.20;99.90;;;;;;5026886;28;20033;-46
2023/06/07 02:24:31;;;;;;;16.63;15.00;;;18.30;99.90;;;;;;5030560;28;20528;-47
2023/06/07 02:27:17;;;;;;;16.17;14.63;;;18.30;99.90;;;;;;5014356;28;20061;-49
2023/06/07 02:30:03;;;;;;;15.80;14.30;;;18.20;99.90;;;;;;5014371;28;20026;-52
2023/06/07 02:32:49;;;;;;;15.93;14.27;;;18.20;99.90;;;;;;5013550;28;20026;-48
2023/06/07 02:35:36;;;;;;;15.13;13.75;;;18.20;99.90;;;;;;5013396;28;20447;-49
2023/06/07 02:38:23;;;;;;;14.20;12.90;;;18.20;99.90;;;;;;5014298;28;20163;-49
2023/06/07 02:41:10;;;;;;;13.75;12.55;;;18.20;99.90;;;;;;5019861;28;20104;-49
2023/06/07 02:43:56;;;;;;;15.73;14.23;;;18.20;99.90;;;;;;5021583;28;20026;-53
2023/06/07 02:46:42;;;;;;;14.27;12.85;;;18.30;99.90;;;;;;5036383;28;20025;-49
2023/06/07 02:49:28;;;;;;;15.05;13.52;;;18.30;99.90;;;;;;5015449;28;20040;-49
2023/06/07 02:52:14;;;;;;;13.48;12.18;;;18.30;99.90;;;;;;5015264;28;20032;-51
2023/06/07 02:55:00;;;;;;;14.73;12.93;;;18.30;99.90;;;;;;5027354;28;20017;-50
2023/06/07 02:57:46;;;;;;;14.48;12.95;;;18.40;99.90;;;;;;5031110;28;20045;-50
2023/06/07 03:00:32;;;;;;;15.38;13.88;;;18.40;99.90;;;;;;5021146;28;20029;-49
2023/06/07 03:03:18;;;;;;;13.68;12.27;;;18.40;99.90;;;;;;5028526;28;20021;-47
2023/06/07 03:06:07;;;;;;;15.20;13.10;;;18.30;99.90;;;;;;5013259;28;20030;-50
2023/06/07 03:08:53;;;;;;;16.17;14.68;;;18.30;99.90;;;;;;5013210;28;20030;-48
2023/06/07 03:11:39;;;;;;;15.25;13.85;;;18.40;99.90;;;;;;5012038;28;20429;-48
2023/06/07 03:14:25;;;;;;;14.73;13.25;;;18.30;99.90;;;;;;5026102;28;20068;-46
2023/06/07 03:17:11;;;;;;;15.85;14.25;;;18.30;99.90;;;;;;5031527;28;20065;-49
2023/06/07 03:19:57;;;;;;;16.88;15.30;;;18.30;99.90;;;;;;5032662;28;20282;-48
2023/06/07 03:22:44;;;;;;;15.98;14.48;;;18.40;99.90;;;;;;5032594;28;20025;-51
2023/06/07 03:25:30;;;;;;;15.27;13.75;;;18.40;99.90;;;;;;5032342;28;20028;-47
2023/06/07 03:28:16;;;;;;;15.10;13.70;;;18.40;99.90;;;;;;5025396;28;20030;-47
2023/06/07 03:31:03;;;;;;;16.30;14.65;;;18.40;99.90;;;;;;5012687;28;20113;-48
2023/06/07 03:33:49;;;;;;;18.63;14.52;;;18.40;99.90;;;;;;5011991;28;20559;-47
2023/06/07 03:36:36;;;;;;;15.95;14.30;;;18.40;99.90;;;;;;5011814;28;20042;-49
2023/06/07 03:39:22;;;;;;;16.42;14.75;;;18.30;99.90;;;;;;5012634;28;20026;-48
2023/06/07 03:42:08;;;;;;;15.85;14.43;;;18.40;99.90;;;;;;5026235;28;20151;-52
2023/06/07 03:44:54;;;;;;;16.40;14.73;;;18.40;99.90;;;;;;5032237;28;20029;-52
2023/06/07 03:47:40;;;;;;;16.45;14.93;;;18.40;99.90;;;;;;5031567;28;20036;-49
2023/06/07 03:50:26;;;;;;;16.02;14.52;;;18.30;99.90;;;;;;5032020;28;20424;-47
2023/06/07 03:53:12;;;;;;;15.57;14.18;;;18.30;99.90;;;;;;5030498;28;20148;-50
2023/06/07 03:55:58;;;;;;;16.42;14.73;;;18.40;99.90;;;;;;5032049;28;20127;-49
2023/06/07 03:58:46;;;;;;;18.63;16.73;;;18.40;99.90;;;;;;5031911;28;20029;-51
2023/06/07 04:01:32;;;;;;;17.02;15.32;;;18.50;99.90;;;;;;5033849;28;20396;-51
2023/06/07 04:04:18;;;;;;;17.15;15.45;;;18.50;99.90;;;;;;5032974;28;20021;-52
2023/06/07 04:07:07;;;;;;;17.58;15.73;;;18.40;99.90;;;;;;5030639;28;20032;-50
2023/06/07 04:09:53;;;;;;;18.05;16.25;;;18.30;99.90;;;;;;5031135;28;20037;-50
2023/06/07 04:12:41;;;;;;;17.45;15.88;;;18.30;99.90;;;;;;5033220;28;20521;-49
2023/06/07 04:15:27;;;;;;;18.85;17.02;;;18.30;99.90;;;;;;5031885;28;20548;-47
2023/06/07 04:18:13;;;;;;;19.48;17.77;;;18.30;99.90;;;;;;5032535;28;20037;-50
2023/06/07 04:20:58;;;;;;;19.33;17.55;;;18.10;99.90;;;;;;5039238;28;20075;-54
2023/06/07 04:23:45;;;;;;;19.58;17.70;;;18.10;99.90;;;;;;5040273;28;20025;-51
2023/06/07 04:26:31;;;;;;;18.77;17.08;;;18.10;99.90;;;;;;5031919;28;20034;-53
2023/06/07 04:29:20;;;;;;;19.55;17.65;;;18.00;99.90;;;;;;5031300;28;20026;-49
2023/06/07 04:32:09;;;;;;;18.52;16.80;;;17.90;99.90;;;;;;5031804;28;20034;-49
2023/06/07 04:34:56;;;;;;;18.70;16.90;;;17.90;99.90;;;;;;5020161;28;20037;-48
2023/06/07 04:37:45;;;;;;;19.15;17.30;;;18.00;99.90;;;;;;5032118;28;20083;-48
2023/06/07 04:40:31;;;;;;;20.20;18.20;;;18.00;99.90;;;;;;5034787;28;20049;-51
2023/06/07 04:43:18;;;;;;;20.20;18.00;;;18.00;99.90;;;;;;5024403;28;20076;-51
2023/06/07 04:46:04;;;;;;;20.80;18.80;;;18.00;99.90;;;;;;5016601;28;20022;-48
2023/06/07 04:48:51;;;;;;;19.40;17.60;;;17.90;99.90;;;;;;5015101;28;20028;-47
2023/06/07 04:51:38;;;;;;;20.25;18.25;;;17.90;99.90;;;;;;5015373;28;20026;-48
2023/06/07 04:54:24;;;;;;;19.30;17.55;;;17.80;99.90;;;;;;5016771;28;20029;-48
2023/06/07 04:57:11;;;;;;;19.70;17.90;;;17.80;99.90;;;;;;5017618;28;20073;-50
2023/06/07 04:59:57;;;;;;;18.80;17.10;;;17.80;99.90;;;;;;5038011;28;20502;-52
2023/06/07 05:02:43;;;;;;;19.73;18.02;;;17.80;99.90;;;;;;5025337;28;20038;-53
2023/06/07 05:05:30;;;;;;;19.77;17.83;;;17.80;99.90;;;;;;5017584;28;20030;-51
2023/06/07 05:08:16;;;;;;;20.80;18.92;;;17.90;99.90;;;;;;5016312;28;20041;-48
2023/06/07 05:11:02;;;;;;;19.63;17.60;;;17.90;99.90;;;;;;5015407;28;20034;-51
2023/06/07 05:13:48;;;;;;;19.50;17.77;;;17.90;99.90;;;;;;5032893;28;20529;-53
2023/06/07 05:16:35;;;;;;;18.25;16.55;;;18.00;99.90;;;;;;5033857;28;20421;-52
2023/06/07 05:19:21;;;;;;;19.17;17.58;;;18.00;99.90;;;;;;5036274;28;20036;-48
2023/06/07 05:22:07;;;;;;;19.98;18.05;;;18.10;99.90;;;;;;5035910;28;20040;-49
2023/06/07 05:24:53;;;;;;;21.55;19.52;;;18.10;99.90;;;;;;5034139;28;20022;-48
2023/06/07 05:27:40;;;;;;;19.83;18.02;;;18.00;99.90;;;;;;5022740;28;20038;-48
2023/06/07 05:30:26;;;;;;;19.33;17.42;;;18.00;99.90;;;;;;5016260;28;20038;-55
2023/06/07 05:33:12;;;;;;;18.70;17.00;;;18.10;99.90;;;;;;5015455;28;20030;-48
2023/06/07 05:35:58;;;;;;;20.20;18.13;;;18.10;99.90;;;;;;5016446;28;20585;-50
2023/06/07 05:38:44;;;;;;;20.25;18.02;;;18.20;99.90;;;;;;5014002;28;20021;-49
2023/06/07 05:41:30;;;;;;;18.83;16.98;;;18.10;99.90;;;;;;5016680;28;20113;-49
2023/06/07 05:44:16;;;;;;;19.63;17.90;;;18.20;99.90;;;;;;5035604;28;20113;-49
2023/06/07 05:47:02;;;;;;;18.92;16.85;;;18.30;99.90;;;;;;5031473;28;20079;-51
2023/06/07 05:49:47;;;;;;;19.48;17.17;;;18.40;99.90;;;;;;5029867;28;20049;-49
2023/06/07 05:52:33;;;;;;;18.23;16.33;;;18.50;99.90;;;;;;5033178;28;20037;-48
2023/06/07 05:55:20;;;;;;;18.83;15.57;;;18.50;99.90;;;;;;5029038;28;20494;-49
2023/06/07 05:58:06;;;;;;;18.98;16.92;;;18.60;99.90;;;;;;5023877;28;20524;-48
2023/06/07 06:00:53;;;;;;;20.90;17.10;;;18.70;99.90;;;;;;5030915;28;20406;-52
2023/06/07 06:03:38;;;;;;;20.67;16.88;;;18.80;99.90;;;;;;5027685;28;20034;-47
2023/06/07 06:06:24;;;;;;;21.15;16.67;;;18.90;99.90;;;;;;5015352;28;20494;-47
2023/06/07 06:09:10;;;;;;;17.15;15.30;;;19.00;99.90;;;;;;5015872;28;20117;-49
2023/06/07 06:11:56;;;;;;;17.58;15.73;;;19.00;99.90;;;;;;5029391;28;20025;-52
2023/06/07 06:14:42;;;;;;;18.10;14.85;;;19.00;99.90;;;;;;5033503;28;20494;-48
2023/06/07 06:17:28;;;;;;;21.13;15.15;;;19.00;99.90;;;;;;5023950;28;20063;-47
2023/06/07 06:20:16;;;;;;;23.80;16.27;;;19.10;99.90;;;;;;5014998;28;20029;-50
2023/06/07 06:23:03;;;;;;;17.13;15.13;;;19.10;99.90;;;;;;5013771;28;20041;-51
2023/06/07 06:25:50;;;;;;;16.55;14.77;;;19.10;99.90;;;;;;5014669;28;20084;-49
2023/06/07 06:28:36;;;;;;;19.85;15.45;;;19.20;99.90;;;;;;5014710;28;20049;-48
2023/06/07 06:31:22;;;;;;;31.35;15.80;;;19.20;99.90;;;;;;5014341;28;20056;-52
2023/06/07 06:34:08;;;;;;;16.08;14.13;;;19.30;99.90;;;;;;5015815;28;20252;-50
2023/06/07 06:36:54;;;;;;;14.75;13.35;;;19.20;99.90;;;;;;5016625;28;20368;-47
2023/06/07 06:39:40;;;;;;;20.17;14.35;;;19.30;99.90;;;;;;5033956;28;20104;-49
2023/06/07 06:42:26;;;;;;;16.17;13.85;;;19.30;99.90;;;;;;5013880;28;20026;-48
2023/06/07 06:45:12;;;;;;;14.35;12.90;;;19.30;99.90;;;;;;5031608;28;20064;-50
2023/06/07 06:48:00;;;;;;;15.40;12.07;;;19.30;99.90;;;;;;5037427;28;20175;-48
2023/06/07 06:50:49;;;;;;;15.80;13.98;;;19.20;99.90;;;;;;5032871;28;20036;-50
2023/06/07 06:53:35;;;;;;;14.45;12.95;;;19.20;99.90;;;;;;5013278;28;20030;-48
2023/06/07 06:56:21;;;;;;;14.30;10.68;;;19.20;99.90;;;;;;5012693;28;20034;-48
2023/06/07 06:59:07;;;;;;;12.98;11.77;;;19.10;99.90;;;;;;5012377;28;20088;-52
2023/06/07 07:01:54;;;;;;;12.88;11.57;;;19.10;99.90;;;;;;5029888;28;20445;-49
2023/06/07 07:04:40;;;;;;;15.07;11.18;;;19.10;99.90;;;;;;5023975;28;20049;-50
2023/06/07 07:07:27;;;;;;;15.70;11.52;;;19.10;99.90;;;;;;5033081;28;20025;-50
2023/06/07 07:10:13;;;;;;;15.95;11.98;;;19.10;99.90;;;;;;5027267;28;20026;-53
2023/06/07 07:12:58;;;;;;;12.90;11.43;;;19.20;99.90;;;;;;5014468;28;20026;-48
2023/06/07 07:15:45;;;;;;;15.48;11.07;;;19.20;99.90;;;;;;5032962;28;20038;-52
2023/06/07 07:18:30;;;;;;;12.77;11.13;;;19.20;99.90;;;;;;5026947;28;20035;-49
2023/06/07 07:21:16;;;;;;;13.18;11.43;;;19.30;99.90;;;;;;5032108;28;20447;-48
2023/06/07 07:24:02;;;;;;;12.30;11.02;;;19.40;99.90;;;;;;5033147;28;20065;-48
2023/06/07 07:26:48;;;;;;;14.77;11.20;;;19.30;99.90;;;;;;5032944;28;20068;-49
2023/06/07 07:29:35;;;;;;;13.52;11.02;;;19.40;99.90;;;;;;5031127;28;20034;-48
2023/06/07 07:32:21;;;;;;;14.45;12.75;;;19.30;99.90;;;;;;5027898;28;20083;-50
2023/06/07 07:35:07;;;;;;;12.18;10.88;;;19.30;99.90;;;;;;5020924;28;20045;-48
2023/06/07 07:37:53;;;;;;;11.55;10.35;;;19.20;99.90;;;;;;5024396;28;20018;-48
2023/06/07 07:40:39;;;;;;;17.08;11.38;;;19.30;99.90;;;;;;5026083;28;20061;-50
2023/06/07 07:43:25;;;;;;;11.43;10.30;;;19.30;99.90;;;;;;5023213;28;20014;-47
2023/06/07 07:46:13;;;;;;;14.52;11.00;;;19.30;99.90;;;;;;5018118;28;20037;-49
2023/06/07 07:48:59;;;;;;;13.25;11.43;;;19.40;99.90;;;;;;5013995;28;20038;-48
2023/06/07 07:51:45;;;;;;;11.73;10.50;;;19.50;99.90;;;;;;5026086;28;20021;-47
2023/06/07 07:54:31;;;;;;;13.05;11.15;;;19.50;99.90;;;;;;5020459;28;20068;-48
2023/06/07 07:57:17;;;;;;;12.43;10.68;;;19.40;99.90;;;;;;5025843;28;20453;-49
2023/06/07 08:00:05;;;;;;;15.25;11.65;;;19.50;99.90;;;;;;5021288;28;20033;-51
2023/06/07 08:02:51;;;;;;;14.23;10.95;;;19.60;99.90;;;;;;5019132;28;20026;-48
2023/06/07 08:05:37;;;;;;;13.60;11.23;;;19.70;99.90;;;;;;5023439;28;20034;-46
2023/06/07 08:08:23;;;;;;;13.95;11.70;;;19.70;99.90;;;;;;5020689;28;20045;-47
2023/06/07 08:11:09;;;;;;;13.48;12.18;;;19.80;99.90;;;;;;5030657;28;20445;-49
2023/06/07 08:13:55;;;;;;;12.82;11.52;;;19.90;99.90;;;;;;5027043;28;20113;-50
2023/06/07 08:16:41;;;;;;;13.88;11.70;;;19.80;99.90;;;;;;5031673;28;20026;-48
2023/06/07 08:19:27;;;;;;;15.50;11.38;;;19.90;99.90;;;;;;5023092;28;20064;-46
2023/06/07 08:22:13;;;;;;;12.45;11.20;;;20.00;99.40;;;;;;5014614;28;20133;-46
2023/06/07 08:24:59;;;;;;;15.30;12.20;;;20.00;99.40;;;;;;5013071;28;20065;-45
2023/06/07 08:27:46;;;;;;;13.70;11.45;;;20.00;99.30;;;;;;5013159;28;20029;-47
2023/06/07 08:30:32;;;;;;;12.57;11.23;;;20.10;99.70;;;;;;5012313;28;20376;-46
2023/06/07 08:33:18;;;;;;;15.40;12.02;;;20.20;99.90;;;;;;5019409;28;20032;-48
2023/06/07 08:36:04;;;;;;;13.45;11.68;;;20.10;99.90;;;;;;5015305;28;20030;-48
2023/06/07 08:38:50;;;;;;;12.93;11.63;;;20.10;99.90;;;;;;5028994;28;20040;-49
2023/06/07 08:41:36;;;;;;;17.15;12.98;;;20.20;99.60;;;;;;5032030;28;20026;-49
2023/06/07 08:44:22;;;;;;;13.40;11.70;;;20.20;99.60;;;;;;5029100;28;20022;-48
2023/06/07 08:47:12;;;;;;;13.63;11.88;;;20.10;99.70;;;;;;5031863;28;20026;-52
2023/06/07 08:49:59;;;;;;;13.82;11.85;;;20.20;99.80;;;;;;5026973;28;20545;-49
2023/06/07 08:52:50;;;;;;;16.40;11.73;;;20.20;99.60;;;;;;5019771;28;20065;-48
2023/06/07 08:55:37;;;;;;;12.68;11.38;;;20.30;99.80;;;;;;5012748;28;20058;-50
2023/06/07 08:58:24;;;;;;;14.88;12.05;;;20.30;99.60;;;;;;5024846;28;20029;-48
2023/06/07 09:01:11;;;;;;;13.48;11.40;;;20.50;99.20;;;;;;5024281;28;20026;-47
2023/06/07 09:03:57;;;;;;;14.27;11.38;;;20.40;99.20;;;;;;5022973;28;20156;-48
2023/06/07 09:06:43;;;;;;;16.60;12.15;;;20.60;99.10;;;;;;5013212;28;20026;-47
2023/06/07 09:09:29;;;;;;;15.70;13.13;;;20.70;98.90;;;;;;5013753;28;20029;-50
2023/06/07 09:12:15;;;;;;;21.52;12.05;;;20.70;99.00;;;;;;5011952;28;20022;-51
2023/06/07 09:15:01;;;;;;;13.80;11.68;;;20.70;99.00;;;;;;5011082;28;20066;-50
2023/06/07 09:17:52;;;;;;;15.20;11.57;;;20.80;99.10;;;;;;5016530;28;20040;-50
2023/06/07 09:20:38;;;;;;;11.80;10.80;;;20.90;98.60;;;;;;5023993;28;20575;-53
2023/06/07 09:23:24;;;;;;;12.40;11.10;;;21.00;98.10;;;;;;5014880;28;20033;-50
2023/06/07 09:26:11;;;;;;;11.77;9.80;;;21.10;97.40;;;;;;5023139;28;20038;-52
2023/06/07 09:29:07;;;;;;;11.85;10.18;;;21.10;97.30;;;;;;5019445;28;20109;-51
2023/06/07 09:31:55;;;;;;;11.45;9.40;;;21.30;96.30;;;;;;5024765;28;20116;-49
2023/06/07 09:34:41;;;;;;;11.55;9.23;;;21.20;96.50;;;;;;5023242;28;20032;-49
2023/06/07 09:37:44;;;;;;;13.88;9.93;;;21.30;95.90;;;;;;5026478;28;20417;-49
2023/06/07 09:40:31;;;;;;;10.82;9.55;;;21.30;95.00;;;;;;5027255;28;20034;-51
2023/06/07 09:43:17;;;;;;;14.85;10.20;;;21.30;94.90;;;;;;5027047;28;20515;-52
2023/06/07 09:46:03;;;;;;;14.55;9.73;;;21.50;94.50;;;;;;5025877;28;20021;-53
2023/06/07 09:48:51;;;;;;;11.85;9.38;;;21.60;94.20;;;;;;5023083;28;20121;-50
2023/06/07 09:51:43;;;;;;;12.88;10.05;;;21.90;93.70;;;;;;5029489;28;20049;-52
2023/06/07 09:54:43;;;;;;;12.68;9.30;;;22.10;93.60;;;;;;5027911;28;20033;-53
2023/06/07 09:57:31;;;;;;;9.98;8.95;;;22.30;93.10;;;;;;5024923;28;20040;-52
2023/06/07 10:00:19;;;;;;;11.18;8.98;;;22.30;92.40;;;;;;5024654;28;20022;-50
2023/06/07 10:03:05;;;;;;;12.38;8.63;;;22.10;92.50;;;;;;5023499;28;20084;-51
2023/06/07 10:05:51;;;;;;;11.15;8.82;;;22.20;91.80;;;;;;5020381;28;20403;-53
2023/06/07 10:08:37;;;;;;;10.50;8.02;;;22.40;91.80;;;;;;5024638;28;20117;-52
2023/06/07 10:11:24;;;;;;;11.75;8.35;;;22.60;91.40;;;;;;5023504;28;20045;-49
2023/06/07 10:14:13;;;;;;;9.48;8.45;;;22.80;90.60;;;;;;5025315;28;20495;-51
2023/06/07 10:17:05;;;;;;;12.35;7.55;;;22.90;90.10;;;;;;5034344;28;20075;-51
2023/06/07 10:19:57;;;;;;;11.30;8.52;;;22.80;88.40;;;;;;5025685;28;20038;-52
2023/06/07 10:22:45;;;;;;;10.05;8.82;;;22.80;89.10;;;;;;5023735;28;20470;-52
2023/06/07 10:25:41;;;;;;;12.70;8.13;;;23.10;90.00;;;;;;5025451;28;20387;-50
2023/06/07 10:28:48;;;;;;;10.52;8.27;;;23.20;89.70;;;;;;5030033;28;20078;-53
2023/06/07 10:31:42;;;;;;;8.80;7.97;;;23.50;88.70;;;;;;5024206;28;20486;-50
2023/06/07 10:34:30;;;;;;;11.48;8.35;;;23.40;88.30;;;;;;5041238;28;20056;-47
2023/06/07 10:37:16;;;;;;;11.90;8.90;;;23.50;87.90;;;;;;5024011;28;20038;-48
2023/06/07 10:40:09;;;;;;;11.98;8.07;;;23.40;88.60;;;;;;5022277;28;20410;-45
2023/06/07 10:42:57;;;;;;;9.55;8.27;;;23.60;88.10;;;;;;5023728;28;20025;-45
2023/06/07 10:45:43;;;;;;;11.88;8.45;;;23.80;86.20;;;;;;5026178;28;20018;-45
2023/06/07 10:48:34;;;;;;;9.57;7.93;;;23.70;86.20;;;;;;5022358;28;20025;-45
2023/06/07 10:51:51;;;;;;;8.40;7.60;;;23.60;87.10;;;;;;5030188;28;20028;-50
2023/06/07 10:54:37;;;;;;;10.55;8.40;;;23.60;87.10;;;;;;5022144;28;20029;-46
2023/06/07 10:57:41;;;;;;;11.45;7.93;;;23.90;86.80;;;;;;5022961;28;20453;-45
2023/06/07 11:00:33;;;;;;;11.13;8.25;;;24.20;86.70;;;;;;5024345;28;20390;-47
2023/06/07 11:03:38;;;;;;;11.23;8.50;;;23.90;86.70;;;;;;5024098;28;20068;-49
2023/06/07 11:06:24;;;;;;;9.77;8.38;;;23.60;87.30;;;;;;5020581;28;20508;-47
2023/06/07 11:09:25;;;;;;;10.50;8.05;;;23.80;87.20;;;;;;5023907;28;20117;-52
2023/06/07 11:12:36;;;;;;;9.77;8.77;;;24.00;86.80;;;;;;5023355;28;20047;-48
2023/06/07 11:15:47;;;;;;;9.90;8.85;;;24.20;85.80;;;;;;5021968;28;20085;-47
2023/06/07 11:18:55;;;;;;;12.93;8.20;;;23.90;85.90;;;;;;5021688;28;20075;-46
2023/06/07 11:21:53;;;;;;;15.73;9.23;;;24.20;87.20;;;;;;5023886;28;20029;-48
2023/06/07 11:24:39;;;;;;;10.15;8.10;;;24.20;86.10;;;;;;5024624;28;20029;-48
2023/06/07 11:27:25;;;;;;;12.23;8.60;;;24.40;86.20;;;;;;5022176;28;20068;-51
2023/06/07 11:30:12;;;;;;;9.93;8.00;;;24.70;86.80;;;;;;5024429;28;20399;-48
2023/06/07 11:32:58;;;;;;;10.30;7.95;;;24.70;85.20;;;;;;5024218;28;20040;-44
2023/06/07 11:35:44;;;;;;;11.02;8.15;;;24.70;85.30;;;;;;5023434;28;20551;-47
2023/06/07 11:38:30;;;;;;;11.60;8.55;;;24.70;85.10;;;;;;5021513;28;20425;-44
2023/06/07 11:41:16;;;;;;;9.80;8.00;;;24.50;84.70;;;;;;5025380;28;20441;-51
2023/06/07 11:44:03;;;;;;;9.63;8.48;;;24.50;85.00;;;;;;5030002;28;20024;-47
2023/06/07 11:46:50;;;;;;;10.60;8.05;;;24.70;84.20;;;;;;5024141;28;20026;-45
2023/06/07 11:49:40;;;;;;;11.00;8.60;;;24.70;81.90;;;;;;5021444;28;20029;-49
2023/06/07 11:52:26;;;;;;;11.52;8.20;;;24.50;82.00;;;;;;5022678;28;20022;-49
2023/06/07 11:55:12;;;;;;;8.45;7.65;;;24.70;81.70;;;;;;5033962;28;20490;-47
2023/06/07 11:58:02;;;;;;;9.57;7.35;;;25.10;80.70;;;;;;5031562;28;20021;-49
2023/06/07 12:00:49;;;;;;;9.88;7.22;;;25.40;80.40;;;;;;5031465;28;20029;-49
2023/06/07 12:03:36;;;;;;;9.30;7.05;;;25.70;78.70;;;;;;5033073;28;20156;-46
2023/06/07 12:06:26;;;;;;;9.77;6.75;;;25.90;77.10;;;;;;5031348;28;20445;-51
2023/06/07 12:09:12;;;;;;;9.55;7.15;;;25.50;77.40;;;;;;5031395;28;20056;-47
2023/06/07 12:11:58;;;;;;;8.00;7.18;;;25.70;77.90;;;;;;5026953;28;20026;-46
2023/06/07 12:14:46;;;;;;;9.82;8.50;;;25.70;78.50;;;;;;5023629;28;20029;-46
2023/06/07 12:17:36;;;;;;;9.93;6.90;;;25.60;77.90;;;;;;5015460;28;20078;-48
2023/06/07 12:20:22;;;;;;;12.40;7.68;;;25.60;77.60;;;;;;5012631;28;20025;-52
2023/06/07 12:23:13;;;;;;;7.93;7.10;;;25.60;78.00;;;;;;5012346;28;20034;-50
2023/06/07 12:26:07;;;;;;;8.35;7.55;;;25.80;77.10;;;;;;5012977;28;20036;-47
2023/06/07 12:28:53;;;;;;;8.75;7.85;;;26.00;76.70;;;;;;5014909;28;20113;-48
2023/06/07 12:31:42;;;;;;;8.52;7.20;;;25.90;77.10;;;;;;5018791;28;20076;-49
2023/06/07 12:34:30;;;;;;;9.20;7.78;;;26.00;77.70;;;;;;5012411;28;20519;-45
2023/06/07 12:37:17;;;;;;;8.52;7.68;;;26.30;76.80;;;;;;5011559;28;20517;-47
2023/06/07 12:40:07;;;;;;;8.35;7.30;;;26.60;76.40;;;;;;5012794;28;20033;-50
2023/06/07 12:42:53;;;;;;;12.45;7.60;;;26.90;76.50;;;;;;5012360;28;20037;-48
2023/06/07 12:45:39;;;;;;;8.45;7.35;;;27.20;75.50;;;;;;5013362;28;20052;-48
2023/06/07 12:48:25;;;;;;;8.85;7.65;;;27.40;76.30;;;;;;5012754;28;20037;-48
2023/06/07 12:51:11;;;;;;;21.48;19.27;;;27.40;74.80;;;;;;5013119;28;20034;-52
2023/06/07 12:53:57;;;;;;;11.07;7.32;;;27.40;74.00;;;;;;5013378;28;20107;-50
2023/06/07 12:56:43;;;;;;;11.82;8.65;;;27.20;74.40;;;;;;5013125;28;20041;-45
2023/06/07 12:59:29;;;;;;;10.38;8.50;;;26.80;74.80;;;;;;5018118;28;20042;-47
2023/06/07 13:02:15;;;;;;;9.90;7.85;;;26.80;75.90;;;;;;5016691;28;20060;-46
2023/06/07 13:05:02;;;;;;;9.52;7.95;;;27.10;75.40;;;;;;5016588;28;20127;-46
2023/06/07 13:07:48;;;;;;;11.52;8.13;;;27.00;74.10;;;;;;5018373;28;20120;-49
2023/06/07 13:10:34;;;;;;;8.52;7.60;;;27.10;75.50;;;;;;5020014;28;20038;-51
2023/06/07 13:13:22;;;;;;;9.50;7.47;;;27.30;74.20;;;;;;5018677;28;20030;-45
2023/06/07 13:16:08;;;;;;;9.73;8.15;;;27.50;75.20;;;;;;5019710;28;20029;-51
2023/06/07 13:18:54;;;;;;;10.45;7.35;;;27.50;73.20;;;;;;5016528;28;20706;-47
2023/06/07 13:21:41;;;;;;;10.32;7.72;;;27.50;74.20;;;;;;5015901;28;20085;-47
2023/06/07 13:24:27;;;;;;;9.85;8.10;;;27.90;73.80;;;;;;5016582;28;20026;-46
2023/06/07 13:27:13;;;;;;;8.45;7.43;;;27.90;72.70;;;;;;5014901;28;20022;-48
2023/06/07 13:29:59;;;;;;;10.90;7.78;;;27.60;73.20;;;;;;5015328;28;20482;-49
2023/06/07 13:32:46;;;;;;;10.95;7.82;;;27.60;73.60;;;;;;5014913;28;20105;-49
2023/06/07 13:35:32;;;;;;;8.07;7.13;;;27.30;73.50;;;;;;5034604;28;20033;-45
2023/06/07 13:38:18;;;;;;;9.25;8.18;;;27.30;73.50;;;;;;5026146;28;20038;-51
2023/06/07 13:41:05;;;;;;;8.02;7.00;;;27.00;73.90;;;;;;5023098;28;20033;-58
2023/06/07 13:43:51;;;;;;;9.90;7.35;;;27.20;74.10;;;;;;5021429;28;20060;-54
2023/06/07 13:46:37;;;;;;;9.85;7.72;;;27.10;73.00;;;;;;5022021;28;20033;-51
2023/06/07 13:49:23;;;;;;;9.90;7.03;;;27.20;72.90;;;;;;5016013;28;20088;-49
2023/06/07 13:52:09;;;;;;;10.30;6.93;;;27.20;73.10;;;;;;5015726;28;20123;-51
2023/06/07 13:54:56;;;;;;;10.02;9.02;;;27.40;73.00;;;;;;5016413;28;20030;-51
2023/06/07 13:57:42;;;;;;;8.13;7.32;;;27.50;73.00;;;;;;5014523;28;20117;-46
2023/06/07 14:00:29;;;;;;;8.23;7.43;;;27.50;72.60;;;;;;5015858;28;20038;-46
2023/06/07 14:03:15;;;;;;;8.10;7.00;;;27.50;72.60;;;;;;5016030;28;20131;-47
2023/06/07 14:06:02;;;;;;;13.63;8.45;;;27.40;73.10;;;;;;5014743;28;20030;-47
2023/06/07 14:08:48;;;;;;;7.95;7.25;;;27.00;73.90;;;;;;5015364;28;20037;-49
2023/06/07 14:11:34;;;;;;;10.15;8.75;;;26.90;74.00;;;;;;5015252;28;20034;-48
2023/06/07 14:14:20;;;;;;;8.13;7.32;;;27.00;74.10;;;;;;5015428;28;20026;-50